createdAt,value
2022-08-25T00:00:31.805Z,18.20
2022-08-25T00:03:13.903Z,18.21
2022-08-25T00:05:44.371Z,18.22
2022-08-25T00:08:14.866Z,18.25
2022-08-25T00:10:59.825Z,18.26
2022-08-25T00:13:34.405Z,18.28
2022-08-25T00:16:04.681Z,18.33
2022-08-25T00:18:35.067Z,18.30
2022-08-25T00:21:05.196Z,18.30
2022-08-25T00:23:36.148Z,18.29
2022-08-25T00:26:08.417Z,18.31
2022-08-25T00:28:40.037Z,18.34
2022-08-25T00:31:14.973Z,18.32
2022-08-25T00:33:46.227Z,18.32
2022-08-25T00:36:17.003Z,18.34
2022-08-25T00:38:49.665Z,18.37
2022-08-25T00:41:24.836Z,18.39
2022-08-25T00:43:58.167Z,18.40
2022-08-25T00:46:30.586Z,18.35
2022-08-25T00:49:03.477Z,18.30
2022-08-25T00:51:38.525Z,18.28
2022-08-25T00:54:12.719Z,18.31
2022-08-25T00:56:45.627Z,18.30
2022-08-25T00:59:17.716Z,18.30
2022-08-25T01:01:48.579Z,18.26
2022-08-25T01:04:18.755Z,18.24
2022-08-25T01:06:51.085Z,18.25
2022-08-25T01:09:22.645Z,18.20
2022-08-25T01:11:54.847Z,18.21
2022-08-25T01:14:26.767Z,18.24
2022-08-25T01:16:58.426Z,18.23
2022-08-25T01:19:30.095Z,18.24
2022-08-25T01:22:02.252Z,18.30
2022-08-25T01:24:40.216Z,18.33
2022-08-25T01:27:11.487Z,18.36
2022-08-25T01:29:42.086Z,18.43
2022-08-25T01:32:15.233Z,18.45
2022-08-25T01:34:47.215Z,18.49
2022-08-25T01:37:19.605Z,18.48
2022-08-25T01:39:49.844Z,18.46
2022-08-25T01:42:39.636Z,18.46
2022-08-25T01:45:11.274Z,18.44
2022-08-25T01:47:41.668Z,18.43
2022-08-25T01:50:12.455Z,18.37
2022-08-25T01:52:52.826Z,18.36
2022-08-25T01:55:23.627Z,18.35
2022-08-25T01:57:54.027Z,18.30
2022-08-25T02:00:25.266Z,18.32
2022-08-25T02:02:55.748Z,18.34
2022-08-25T02:05:25.875Z,18.36
2022-08-25T02:07:59.966Z,18.29
2022-08-25T02:10:30.149Z,18.25
2022-08-25T02:13:00.746Z,18.27
2022-08-25T02:15:30.765Z,18.28
2022-08-25T02:18:01.617Z,18.36
2022-08-25T02:20:31.706Z,18.41
2022-08-25T02:23:03.454Z,18.44
2022-08-25T02:25:34.206Z,18.44
2022-08-25T02:28:05.135Z,18.46
2022-08-25T02:30:35.656Z,18.47
2022-08-25T02:33:06.761Z,18.51
2022-08-25T02:35:37.154Z,18.53
2022-08-25T02:38:09.344Z,18.56
2022-08-25T02:40:39.485Z,18.60
2022-08-25T02:43:09.747Z,18.64
2022-08-25T02:45:39.924Z,18.63
2022-08-25T02:48:10.387Z,18.63
2022-08-25T02:50:40.715Z,18.61
2022-08-25T02:53:12.535Z,18.62
2022-08-25T02:55:43.215Z,18.59
2022-08-25T02:58:13.486Z,18.57
2022-08-25T03:00:43.972Z,18.55
2022-08-25T03:03:14.625Z,18.58
2022-08-25T03:05:44.827Z,18.61
2022-08-25T03:08:16.827Z,18.60
2022-08-25T03:10:47.448Z,18.63
2022-08-25T03:13:18.386Z,18.66
2022-08-25T03:15:49.350Z,18.64
2022-08-25T03:18:20.143Z,18.67
2022-08-25T03:20:50.264Z,18.69
2022-08-25T03:23:22.302Z,18.71
2022-08-25T03:26:09.733Z,18.73
2022-08-25T03:28:40.081Z,18.76
2022-08-25T03:31:11.022Z,18.80
2022-08-25T03:33:41.011Z,18.80
2022-08-25T03:36:13.616Z,18.84
2022-08-25T03:38:45.673Z,18.86
2022-08-25T03:41:17.872Z,18.91
2022-08-25T03:43:48.326Z,18.94
2022-08-25T03:46:23.423Z,18.93
2022-08-25T03:48:54.303Z,18.96
2022-08-25T03:51:26.462Z,18.97
2022-08-25T03:53:59.304Z,18.96
2022-08-25T03:56:29.799Z,18.97
2022-08-25T03:59:00.373Z,18.91
2022-08-25T04:01:30.743Z,18.91
2022-08-25T04:04:01.155Z,18.90
2022-08-25T04:06:31.441Z,18.84
2022-08-25T04:09:03.274Z,18.83
2022-08-25T04:11:33.753Z,18.87
2022-08-25T04:14:05.221Z,18.90
2022-08-25T04:16:37.716Z,18.90
2022-08-25T04:19:09.731Z,18.94
2022-08-25T04:21:40.961Z,18.97
2022-08-25T04:24:14.191Z,18.99
2022-08-25T04:26:47.296Z,19.03
2022-08-25T04:29:19.836Z,19.07
2022-08-25T04:31:55.959Z,19.16
2022-08-25T04:34:30.199Z,19.25
2022-08-25T04:37:03.891Z,19.38
2022-08-25T04:39:35.681Z,19.49
2022-08-25T04:42:07.011Z,19.64
2022-08-25T04:44:37.283Z,19.72
2022-08-25T04:47:07.983Z,19.80
2022-08-25T04:49:38.783Z,19.89
2022-08-25T04:52:14.308Z,19.96
2022-08-25T04:54:46.690Z,20.02
2022-08-25T04:57:17.021Z,20.05
2022-08-25T04:59:47.062Z,20.11
2022-08-25T05:02:17.102Z,20.18
2022-08-25T05:04:47.574Z,20.24
2022-08-25T05:07:17.643Z,20.29
2022-08-25T05:09:49.342Z,20.33
2022-08-25T05:12:20.555Z,20.40
2022-08-25T05:14:53.812Z,20.50
2022-08-25T05:17:24.003Z,20.54
2022-08-25T05:19:54.472Z,20.60
2022-08-25T05:22:24.591Z,20.64
2022-08-25T05:24:56.113Z,20.67
2022-08-25T05:27:26.592Z,20.73
2022-08-25T05:29:56.722Z,20.80
2022-08-25T05:32:27.043Z,20.82
2022-08-25T05:34:57.252Z,20.84
2022-08-25T05:37:27.351Z,20.85
2022-08-25T05:39:59.207Z,20.90
2022-08-25T05:42:29.814Z,20.97
2022-08-25T05:45:00.252Z,21.16
2022-08-25T05:47:30.396Z,21.30
2022-08-25T05:50:00.855Z,21.32
2022-08-25T05:52:31.224Z,21.33
2022-08-25T05:55:02.760Z,21.45
2022-08-25T05:57:34.024Z,21.44
2022-08-25T06:00:05.783Z,21.47
2022-08-25T06:02:41.706Z,21.57
2022-08-25T06:05:13.945Z,21.78
2022-08-25T06:07:44.364Z,21.85
2022-08-25T06:10:16.900Z,22.00
2022-08-25T06:12:48.836Z,22.01
2022-08-25T06:15:20.552Z,21.63
2022-08-25T06:17:52.368Z,21.63
2022-08-25T06:20:26.012Z,21.58
2022-08-25T06:22:56.773Z,21.58
2022-08-25T06:25:33.300Z,21.66
2022-08-25T06:28:04.167Z,21.67
2022-08-25T06:30:34.542Z,21.67
2022-08-25T06:33:04.963Z,21.75
2022-08-25T06:35:35.053Z,21.77
2022-08-25T06:38:06.137Z,21.73
2022-08-25T06:40:38.362Z,21.78
2022-08-25T06:43:09.249Z,21.77
2022-08-25T06:45:41.418Z,21.90
2022-08-25T06:48:11.975Z,21.97
2022-08-25T06:50:43.534Z,22.08
2022-08-25T06:53:14.526Z,22.19
2022-08-25T06:55:46.290Z,22.23
2022-08-25T06:58:16.607Z,22.25
2022-08-25T07:00:47.110Z,22.23
2022-08-25T07:03:17.623Z,22.15
2022-08-25T07:05:54.331Z,22.20
2022-08-25T07:08:24.943Z,22.33
2022-08-25T07:10:56.870Z,22.19
2022-08-25T07:13:32.012Z,22.20
2022-08-25T07:16:02.739Z,22.23
2022-08-25T07:18:35.621Z,22.19
2022-08-25T07:21:08.847Z,22.13
2022-08-25T07:23:41.163Z,22.09
2022-08-25T07:26:35.999Z,22.10
2022-08-25T07:29:09.418Z,22.24
2022-08-25T07:31:39.933Z,22.26
2022-08-25T07:34:28.706Z,21.97
2022-08-25T07:37:00.112Z,22.13
2022-08-25T07:39:30.933Z,22.19
2022-08-25T07:42:04.233Z,22.31
2022-08-25T07:44:39.859Z,22.28
2022-08-25T07:47:11.591Z,22.34
2022-08-25T07:50:03.266Z,22.43
2022-08-25T07:52:36.826Z,22.32
2022-08-25T07:55:11.071Z,22.32
2022-08-25T07:57:44.032Z,22.55
2022-08-25T08:00:18.083Z,22.43
2022-08-25T08:02:50.859Z,22.34
2022-08-25T08:05:23.794Z,22.34
2022-08-25T08:07:54.685Z,22.44
2022-08-25T08:10:47.778Z,22.41
2022-08-25T08:13:18.983Z,22.20
2022-08-25T08:15:51.469Z,22.22
2022-08-25T08:18:22.544Z,22.21
2022-08-25T08:20:54.094Z,22.26
2022-08-25T08:23:28.043Z,22.43
2022-08-25T08:25:58.386Z,22.28
2022-08-25T08:28:30.434Z,22.32
2022-08-25T08:31:01.143Z,22.16
2022-08-25T08:33:31.830Z,22.26
2022-08-25T08:36:10.060Z,22.22
2022-08-25T08:38:41.782Z,22.19
2022-08-25T08:42:09.774Z,22.09
2022-08-25T08:44:48.202Z,22.08
2022-08-25T08:47:33.994Z,21.84
2022-08-25T08:50:12.212Z,21.65
2022-08-25T08:52:52.639Z,21.59
2022-08-25T08:55:30.231Z,21.57
2022-08-25T08:58:03.417Z,21.31
2022-08-25T09:00:40.962Z,21.14
2022-08-25T09:03:34.996Z,21.13
2022-08-25T09:06:09.515Z,21.21
2022-08-25T09:08:45.211Z,21.10
2022-08-25T09:11:30.584Z,21.06
2022-08-25T09:14:22.624Z,21.04
2022-08-25T09:17:09.308Z,20.96
2022-08-25T09:20:05.796Z,21.06
2022-08-25T09:23:01.801Z,21.10
2022-08-25T09:25:54.022Z,21.04
2022-08-25T09:28:32.776Z,21.13
2022-08-25T09:31:07.254Z,21.06
2022-08-25T09:33:40.166Z,21.06
2022-08-25T09:36:12.137Z,20.98
2022-08-25T09:38:42.878Z,20.97
2022-08-25T09:41:19.535Z,21.06
2022-08-25T09:43:56.491Z,21.18
2022-08-25T09:46:29.129Z,21.14
2022-08-25T09:49:12.832Z,21.02
2022-08-25T09:51:44.572Z,20.97
2022-08-25T09:54:25.560Z,21.07
2022-08-25T09:57:31.560Z,21.10
2022-08-25T10:00:16.873Z,21.28
2022-08-25T10:03:05.609Z,21.33
2022-08-25T10:05:44.567Z,21.25
2022-08-25T10:08:27.062Z,21.24
2022-08-25T10:10:59.070Z,21.24
2022-08-25T10:13:40.703Z,21.40
2022-08-25T10:16:20.556Z,21.52
2022-08-25T10:19:07.170Z,21.59
2022-08-25T10:21:40.405Z,21.43
2022-08-25T10:24:13.254Z,21.55
2022-08-25T10:27:02.630Z,21.55
2022-08-25T10:29:50.940Z,21.60
2022-08-25T10:32:30.253Z,21.73
2022-08-25T10:35:04.960Z,21.76
2022-08-25T10:37:44.581Z,21.77
2022-08-25T10:40:24.875Z,21.82
2022-08-25T10:43:08.163Z,21.95
2022-08-25T10:45:44.429Z,22.12
2022-08-25T10:48:45.632Z,22.47
2022-08-25T10:51:42.671Z,22.60
2022-08-25T10:54:35.090Z,22.70
2022-08-25T10:57:17.197Z,22.66
2022-08-25T10:59:59.345Z,22.78
2022-08-25T11:03:12.090Z,22.85
2022-08-25T11:05:45.931Z,22.80
2022-08-25T11:08:21.301Z,22.97
2022-08-25T11:11:00.292Z,23.09
2022-08-25T11:13:40.111Z,23.03
2022-08-25T11:16:18.839Z,22.91
2022-08-25T11:18:55.600Z,22.98
2022-08-25T11:21:34.854Z,23.16
2022-08-25T11:24:24.997Z,23.16
2022-08-25T11:26:58.861Z,23.10
2022-08-25T11:29:35.630Z,23.12
2022-08-25T11:32:07.780Z,23.20
2022-08-25T11:34:43.551Z,23.06
2022-08-25T11:37:23.342Z,23.03
2022-08-25T11:40:23.495Z,22.97
2022-08-25T11:43:08.812Z,23.14
2022-08-25T11:45:56.628Z,23.20
2022-08-25T11:48:38.925Z,23.24
2022-08-25T11:51:11.264Z,23.33
2022-08-25T11:53:42.990Z,23.35
2022-08-25T11:56:32.716Z,23.34
2022-08-25T11:59:07.105Z,23.44
2022-08-25T12:02:29.304Z,23.72
2022-08-25T12:04:59.973Z,23.55
2022-08-25T12:08:13.135Z,23.20
2022-08-25T12:11:09.916Z,23.26
2022-08-25T12:13:46.070Z,23.14
2022-08-25T12:16:40.566Z,23.34
2022-08-25T12:19:49.516Z,23.17
2022-08-25T12:22:51.751Z,23.19
2022-08-25T12:25:52.895Z,23.16
2022-08-25T12:28:50.882Z,23.11
2022-08-25T12:31:43.741Z,23.17
2022-08-25T12:34:34.359Z,23.24
2022-08-25T12:37:13.362Z,23.31
2022-08-25T12:39:58.680Z,23.27
2022-08-25T12:42:34.921Z,23.22
2022-08-25T12:45:16.090Z,23.26
2022-08-25T12:47:51.379Z,23.55
2022-08-25T12:50:38.535Z,23.54
2022-08-25T12:53:16.771Z,23.45
2022-08-25T12:55:52.188Z,23.32
2022-08-25T12:58:28.553Z,23.11
2022-08-25T13:01:35.778Z,22.79
2022-08-25T13:04:38.255Z,22.82
2022-08-25T13:07:36.318Z,22.73
2022-08-25T13:10:24.548Z,22.54
2022-08-25T13:13:02.865Z,22.46
2022-08-25T13:15:41.870Z,22.62
2022-08-25T13:18:23.501Z,23.24
2022-08-25T13:20:57.408Z,23.10
2022-08-25T13:23:31.705Z,23.68
2022-08-25T13:26:02.206Z,24.55
2022-08-25T13:28:36.544Z,25.31
2022-08-25T13:31:17.184Z,24.63
2022-08-25T13:33:58.503Z,24.56
2022-08-25T13:36:54.028Z,24.43
2022-08-25T13:39:45.652Z,24.26
2022-08-25T13:42:21.013Z,24.53
2022-08-25T13:44:59.031Z,24.22
2022-08-25T13:47:45.403Z,23.85
2022-08-25T13:50:35.137Z,23.65
2022-08-25T13:53:11.485Z,23.71
2022-08-25T13:55:53.517Z,23.41
2022-08-25T13:58:39.401Z,23.41
2022-08-25T14:01:48.443Z,23.57
2022-08-25T14:04:25.925Z,23.47
2022-08-25T14:07:34.152Z,23.18
2022-08-25T14:10:08.605Z,24.00
2022-08-25T14:12:44.658Z,24.79
2022-08-25T14:15:33.375Z,23.74
2022-08-25T14:18:07.357Z,23.49
2022-08-25T14:20:39.513Z,23.23
2022-08-25T14:23:18.761Z,23.50
2022-08-25T14:25:50.986Z,23.17
2022-08-25T14:28:24.624Z,23.04
2022-08-25T14:30:58.845Z,22.94
2022-08-25T14:33:31.853Z,23.10
2022-08-25T14:36:05.375Z,23.15
2022-08-25T14:38:39.025Z,23.15
2022-08-25T14:41:11.665Z,23.12
2022-08-25T14:43:43.686Z,23.21
2022-08-25T14:46:20.053Z,22.97
2022-08-25T14:48:55.361Z,22.85
2022-08-25T14:51:26.674Z,22.88
2022-08-25T14:54:00.826Z,22.95
2022-08-25T14:56:31.765Z,22.87
2022-08-25T14:59:05.115Z,22.93
2022-08-25T15:01:35.928Z,22.77
2022-08-25T15:04:10.731Z,22.62
2022-08-25T15:06:43.870Z,22.49
2022-08-25T15:09:16.632Z,22.45
2022-08-25T15:11:50.568Z,22.43
2022-08-25T15:14:28.802Z,22.30
2022-08-25T15:17:04.728Z,22.19
2022-08-25T15:19:37.865Z,22.09
2022-08-25T15:22:08.314Z,22.07
2022-08-25T15:24:41.054Z,22.07
2022-08-25T15:27:11.931Z,22.10
2022-08-25T15:29:44.440Z,22.12
2022-08-25T15:32:15.171Z,22.17
2022-08-25T15:34:45.689Z,22.11
2022-08-25T15:37:17.866Z,22.10
2022-08-25T15:39:49.246Z,22.12
2022-08-25T15:42:19.952Z,22.12
2022-08-25T15:44:53.164Z,22.23
2022-08-25T15:47:24.822Z,22.19
2022-08-25T15:50:01.505Z,22.16
2022-08-25T15:52:46.088Z,22.14
2022-08-25T15:55:19.817Z,22.04
2022-08-25T15:57:50.472Z,21.87
2022-08-25T16:00:22.261Z,21.88
2022-08-25T16:02:52.768Z,21.74
2022-08-25T16:05:25.982Z,21.66
2022-08-25T16:07:56.675Z,21.59
2022-08-25T16:10:27.677Z,21.63
2022-08-25T16:12:57.607Z,21.61
2022-08-25T16:15:30.365Z,21.55
2022-08-25T16:18:01.706Z,21.63
2022-08-25T16:20:39.774Z,21.59
2022-08-25T16:23:11.195Z,21.54
2022-08-25T16:25:42.836Z,21.58
2022-08-25T16:28:20.505Z,21.55
2022-08-25T16:30:56.454Z,21.54
2022-08-25T16:33:29.359Z,21.55
2022-08-25T16:36:10.841Z,21.55
2022-08-25T16:38:42.736Z,21.51
2022-08-25T16:41:23.658Z,21.52
2022-08-25T16:43:55.572Z,21.50
2022-08-25T16:46:29.095Z,21.49
2022-08-25T16:49:03.996Z,21.49
2022-08-25T16:51:37.062Z,21.48
2022-08-25T16:54:28.159Z,21.48
2022-08-25T16:56:59.614Z,21.49
2022-08-25T16:59:31.255Z,21.46
2022-08-25T17:02:03.058Z,21.38
2022-08-25T17:04:35.516Z,21.32
2022-08-25T17:07:07.899Z,21.33
2022-08-25T17:09:38.994Z,21.30
2022-08-25T17:12:11.847Z,21.34
2022-08-25T17:14:43.267Z,21.29
2022-08-25T17:17:17.267Z,21.28
2022-08-25T17:19:53.430Z,21.21
2022-08-25T17:22:24.956Z,21.20
2022-08-25T17:24:59.186Z,21.17
2022-08-25T17:27:32.322Z,21.21
2022-08-25T17:30:02.749Z,21.18
2022-08-25T17:32:34.344Z,21.16
2022-08-25T17:35:08.329Z,21.14
2022-08-25T17:37:39.143Z,21.12
2022-08-25T17:40:11.026Z,21.13
2022-08-25T17:42:41.205Z,21.07
2022-08-25T17:45:12.077Z,21.03
2022-08-25T17:47:43.729Z,21.00
2022-08-25T17:50:15.199Z,20.92
2022-08-25T17:52:47.340Z,20.93
2022-08-25T17:55:21.846Z,20.94
2022-08-25T17:57:52.709Z,20.93
2022-08-25T18:00:23.434Z,20.97
2022-08-25T18:02:55.607Z,20.95
2022-08-25T18:05:27.921Z,20.98
2022-08-25T18:07:58.347Z,20.97
2022-08-25T18:10:31.949Z,20.92
2022-08-25T18:13:02.558Z,20.91
2022-08-25T18:15:34.295Z,20.89
2022-08-25T18:18:07.394Z,20.89
2022-08-25T18:20:38.219Z,20.86
2022-08-25T18:23:09.833Z,20.86
2022-08-25T18:25:41.826Z,20.84
2022-08-25T18:28:13.305Z,20.82
2022-08-25T18:30:44.741Z,20.79
2022-08-25T18:33:19.244Z,20.82
2022-08-25T18:35:49.634Z,20.81
2022-08-25T18:38:37.424Z,20.77
2022-08-25T18:41:09.763Z,20.73
2022-08-25T18:43:40.006Z,20.68
2022-08-25T18:46:10.558Z,20.65
2022-08-25T18:48:44.597Z,20.62
2022-08-25T18:51:23.000Z,20.61
2022-08-25T18:53:54.707Z,20.58
2022-08-25T18:56:54.924Z,20.56
2022-08-25T18:59:26.864Z,20.54
2022-08-25T19:02:03.748Z,20.55
2022-08-25T19:04:42.615Z,20.50
2022-08-25T19:07:18.903Z,20.44
2022-08-25T19:09:55.645Z,20.38
2022-08-25T19:12:32.692Z,20.37
2022-08-25T19:15:10.794Z,20.37
2022-08-25T19:17:44.423Z,20.37
2022-08-25T19:20:18.488Z,20.38
2022-08-25T19:22:51.763Z,20.40
2022-08-25T19:25:23.525Z,20.39
2022-08-25T19:27:55.955Z,20.41
2022-08-25T19:30:29.290Z,20.40
2022-08-25T19:33:00.313Z,20.39
2022-08-25T19:35:37.149Z,20.37
2022-08-25T19:38:33.420Z,20.38
2022-08-25T19:41:14.840Z,20.36
2022-08-25T19:43:56.577Z,20.34
2022-08-25T19:46:35.307Z,20.35
2022-08-25T19:49:19.748Z,20.34
2022-08-25T19:51:55.507Z,20.35
2022-08-25T19:54:32.098Z,20.31
2022-08-25T19:57:07.951Z,20.32
2022-08-25T19:59:48.335Z,20.33
2022-08-25T20:02:25.342Z,20.36
2022-08-25T20:05:03.877Z,20.38
2022-08-25T20:07:39.134Z,20.37
2022-08-25T20:10:16.622Z,20.38
2022-08-25T20:12:51.345Z,20.37
2022-08-25T20:15:26.337Z,20.34
2022-08-25T20:17:59.913Z,20.34
2022-08-25T20:20:34.595Z,20.33
2022-08-25T20:23:28.266Z,20.31
2022-08-25T20:26:02.509Z,20.29
2022-08-25T20:28:34.651Z,20.26
2022-08-25T20:31:10.785Z,20.24
2022-08-25T20:33:44.739Z,20.22
2022-08-25T20:36:20.204Z,20.18
2022-08-25T20:38:54.737Z,20.15
2022-08-25T20:41:29.370Z,20.11
2022-08-25T20:44:02.635Z,20.08
2022-08-25T20:46:38.215Z,20.09
2022-08-25T20:49:10.830Z,20.13
2022-08-25T20:51:44.373Z,20.09
2022-08-25T20:54:20.733Z,20.06
2022-08-25T20:56:55.492Z,20.05
2022-08-25T20:59:30.403Z,20.06
2022-08-25T21:02:02.935Z,20.01
2022-08-25T21:04:36.683Z,20.05
2022-08-25T21:07:12.499Z,20.03
2022-08-25T21:09:45.763Z,20.01
2022-08-25T21:12:16.661Z,20.02
2022-08-25T21:14:46.974Z,19.99
2022-08-25T21:17:19.213Z,19.98
2022-08-25T21:19:49.576Z,19.97
2022-08-25T21:22:21.363Z,19.91
2022-08-25T21:24:55.951Z,19.90
2022-08-25T21:27:26.421Z,19.91
2022-08-25T21:29:56.448Z,19.90
2022-08-25T21:32:26.714Z,19.89
2022-08-25T21:34:57.610Z,19.92
2022-08-25T21:37:28.871Z,19.91
2022-08-25T21:40:01.068Z,19.90
2022-08-25T21:42:31.134Z,19.89
2022-08-25T21:45:01.565Z,19.90
2022-08-25T21:47:32.402Z,19.88
2022-08-25T21:50:05.348Z,19.88
2022-08-25T21:52:36.071Z,19.87
2022-08-25T21:55:16.120Z,19.84
2022-08-25T21:57:46.483Z,19.82
2022-08-25T22:00:17.531Z,19.81
2022-08-25T22:02:52.036Z,19.83
2022-08-25T22:05:22.663Z,19.81
2022-08-25T22:07:52.762Z,19.78
2022-08-25T22:10:25.302Z,19.77
2022-08-25T22:12:55.500Z,19.74
2022-08-25T22:15:25.850Z,19.69
2022-08-25T22:17:55.831Z,19.65
2022-08-25T22:20:26.360Z,19.64
2022-08-25T22:23:00.533Z,19.65
2022-08-25T22:25:33.881Z,19.68
2022-08-25T22:28:04.469Z,19.67
2022-08-25T22:30:35.734Z,19.70
2022-08-25T22:33:09.050Z,19.71
2022-08-25T22:35:40.190Z,19.68
2022-08-25T22:38:12.418Z,19.68
2022-08-25T22:40:45.710Z,19.65
2022-08-25T22:43:16.780Z,19.64
2022-08-25T22:45:47.378Z,19.61
2022-08-25T22:48:17.881Z,19.60
2022-08-25T22:50:48.889Z,19.57
2022-08-25T22:53:19.480Z,19.58
2022-08-25T22:55:52.252Z,19.57
2022-08-25T22:58:30.202Z,19.59
2022-08-25T23:01:00.931Z,19.61
2022-08-25T23:03:31.733Z,19.58
2022-08-25T23:06:02.220Z,19.54
2022-08-25T23:08:40.683Z,19.58
2022-08-25T23:11:14.510Z,19.54
2022-08-25T23:13:44.970Z,19.54
2022-08-25T23:16:16.062Z,19.51
2022-08-25T23:18:47.243Z,19.49
2022-08-25T23:21:40.797Z,19.49
2022-08-25T23:24:12.901Z,19.48
2022-08-25T23:26:45.278Z,19.48
2022-08-25T23:29:21.755Z,19.46
2022-08-25T23:31:52.032Z,19.46
2022-08-25T23:34:24.439Z,19.47
2022-08-25T23:36:54.850Z,19.43
2022-08-25T23:39:26.866Z,19.43
2022-08-25T23:41:58.805Z,19.43
2022-08-25T23:44:30.590Z,19.41
2022-08-25T23:47:00.825Z,19.42
2022-08-25T23:49:31.420Z,19.41
2022-08-25T23:52:01.660Z,19.41
2022-08-25T23:54:32.808Z,19.41
2022-08-25T23:57:06.963Z,19.41
2022-08-25T23:59:38.394Z,19.41
